sensor_id;sensor_type;location;lat;lon;timestamp;pressure;altitude;pressure_sealevel;temperature;humidity
64053;BME280;50299;49.524;8.536;2023-04-16T00:01:33;100568.31;;;5.45;86.71
64053;BME280;50299;49.524;8.536;2023-04-16T00:04:02;100566.63;;;5.49;87.06
64053;BME280;50299;49.524;8.536;2023-04-16T00:06:29;100557.56;;;5.72;82.48
64053;BME280;50299;49.524;8.536;2023-04-16T00:08:55;100557.81;;;5.95;85.89
64053;BME280;50299;49.524;8.536;2023-04-16T00:11:22;100563.38;;;6.08;84.03
64053;BME280;50299;49.524;8.536;2023-04-16T00:13:48;100566.34;;;6.12;83.42
64053;BME280;50299;49.524;8.536;2023-04-16T00:16:15;100570.38;;;6.01;82.77
64053;BME280;50299;49.524;8.536;2023-04-16T00:18:41;100568.53;;;6.34;85.24
64053;BME280;50299;49.524;8.536;2023-04-16T00:21:10;100571.34;;;6.29;77.73
64053;BME280;50299;49.524;8.536;2023-04-16T00:23:36;100568.31;;;6.30;86.05
64053;BME280;50299;49.524;8.536;2023-04-16T00:26:03;100569.13;;;6.31;83.29
64053;BME280;50299;49.524;8.536;2023-04-16T00:28:29;100576.03;;;6.47;79.30
64053;BME280;50299;49.524;8.536;2023-04-16T00:30:57;100576.19;;;6.70;83.86
64053;BME280;50299;49.524;8.536;2023-04-16T00:33:25;100575.56;;;6.59;79.21
64053;BME280;50299;49.524;8.536;2023-04-16T00:35:51;100572.66;;;6.12;76.45
64053;BME280;50299;49.524;8.536;2023-04-16T00:38:17;100579.47;;;5.96;76.95
64053;BME280;50299;49.524;8.536;2023-04-16T00:40:44;100571.47;;;6.19;83.13
64053;BME280;50299;49.524;8.536;2023-04-16T00:43:10;100578.91;;;6.37;80.39
64053;BME280;50299;49.524;8.536;2023-04-16T00:45:37;100582.69;;;6.60;83.75
64053;BME280;50299;49.524;8.536;2023-04-16T00:48:04;100584.53;;;6.64;77.01
64053;BME280;50299;49.524;8.536;2023-04-16T00:50:31;100583.38;;;6.84;87.43
64053;BME280;50299;49.524;8.536;2023-04-16T00:52:59;100582.56;;;6.84;80.84
64053;BME280;50299;49.524;8.536;2023-04-16T00:55:26;100586.34;;;6.88;78.96
64053;BME280;50299;49.524;8.536;2023-04-16T00:57:53;100595.22;;;6.99;78.65
64053;BME280;50299;49.524;8.536;2023-04-16T01:00:19;100587.75;;;6.85;76.79
64053;BME280;50299;49.524;8.536;2023-04-16T01:02:46;100596.44;;;6.93;77.14
64053;BME280;50299;49.524;8.536;2023-04-16T01:05:13;100595.75;;;7.01;75.21
64053;BME280;50299;49.524;8.536;2023-04-16T01:07:39;100593.78;;;6.87;80.07
64053;BME280;50299;49.524;8.536;2023-04-16T01:10:06;100591.09;;;7.15;87.36
64053;BME280;50299;49.524;8.536;2023-04-16T01:12:33;100597.78;;;6.95;78.73
64053;BME280;50299;49.524;8.536;2023-04-16T01:14:59;100597.13;;;7.17;82.18
64053;BME280;50299;49.524;8.536;2023-04-16T01:17:26;100599.75;;;7.22;77.74
64053;BME280;50299;49.524;8.536;2023-04-16T01:19:52;100601.91;;;7.11;75.52
64053;BME280;50299;49.524;8.536;2023-04-16T01:22:18;100592.13;;;7.19;85.80
64053;BME280;50299;49.524;8.536;2023-04-16T01:24:45;100586.53;;;7.24;84.99
64053;BME280;50299;49.524;8.536;2023-04-16T01:27:11;100586.97;;;6.99;84.19
64053;BME280;50299;49.524;8.536;2023-04-16T01:29:38;100590.88;;;6.27;78.68
64053;BME280;50299;49.524;8.536;2023-04-16T01:32:04;100595.56;;;6.03;80.19
64053;BME280;50299;49.524;8.536;2023-04-16T01:34:33;100597.59;;;5.73;82.36
64053;BME280;50299;49.524;8.536;2023-04-16T01:36:59;100589.53;;;5.82;84.23
64053;BME280;50299;49.524;8.536;2023-04-16T01:39:26;100588.63;;;5.44;82.14
64053;BME280;50299;49.524;8.536;2023-04-16T01:41:52;100600.72;;;5.37;85.50
64053;BME280;50299;49.524;8.536;2023-04-16T01:44:19;100593.81;;;5.45;88.53
64053;BME280;50299;49.524;8.536;2023-04-16T01:46:46;100592.19;;;5.15;88.83
64053;BME280;50299;49.524;8.536;2023-04-16T01:49:13;100597.63;;;4.91;87.31
64053;BME280;50299;49.524;8.536;2023-04-16T01:51:39;100607.22;;;5.23;85.80
64053;BME280;50299;49.524;8.536;2023-04-16T01:54:07;100603.09;;;4.91;88.24
64053;BME280;50299;49.524;8.536;2023-04-16T01:56:34;100593.16;;;3.72;90.27
64053;BME280;50299;49.524;8.536;2023-04-16T01:59:00;100606.34;;;3.50;92.70
64053;BME280;50299;49.524;8.536;2023-04-16T02:01:27;100595.72;;;4.08;94.29
64053;BME280;50299;49.524;8.536;2023-04-16T02:03:56;100599.53;;;4.12;90.96
64053;BME280;50299;49.524;8.536;2023-04-16T02:06:23;100608.81;;;4.55;91.27
64053;BME280;50299;49.524;8.536;2023-04-16T02:08:49;100600.88;;;4.14;88.28
64053;BME280;50299;49.524;8.536;2023-04-16T02:11:16;100606.59;;;4.18;88.58
64053;BME280;50299;49.524;8.536;2023-04-16T02:13:42;100604.13;;;4.22;91.89
64053;BME280;50299;49.524;8.536;2023-04-16T02:16:09;100602.03;;;4.87;95.46
64053;BME280;50299;49.524;8.536;2023-04-16T02:18:35;100607.44;;;4.13;88.56
64053;BME280;50299;49.524;8.536;2023-04-16T02:21:02;100612.94;;;3.38;91.13
64053;BME280;50299;49.524;8.536;2023-04-16T02:23:28;100606.31;;;3.60;91.04
64053;BME280;50299;49.524;8.536;2023-04-16T02:25:54;100608.44;;;3.78;92.11
64053;BME280;50299;49.524;8.536;2023-04-16T02:28:21;100604.38;;;4.25;95.87
64053;BME280;50299;49.524;8.536;2023-04-16T02:30:47;100614.50;;;3.65;90.05
64053;BME280;50299;49.524;8.536;2023-04-16T02:33:14;100601.34;;;3.72;90.52
64053;BME280;50299;49.524;8.536;2023-04-16T02:35:40;100601.75;;;3.09;94.41
64053;BME280;50299;49.524;8.536;2023-04-16T02:38:07;100612.03;;;3.63;92.99
64053;BME280;50299;49.524;8.536;2023-04-16T02:40:34;100608.72;;;3.77;90.17
64053;BME280;50299;49.524;8.536;2023-04-16T02:43:01;100613.00;;;4.03;94.90
64053;BME280;50299;49.524;8.536;2023-04-16T02:45:27;100619.47;;;3.58;89.73
64053;BME280;50299;49.524;8.536;2023-04-16T02:47:53;100616.06;;;3.86;89.71
64053;BME280;50299;49.524;8.536;2023-04-16T02:50:20;100620.25;;;4.28;91.66
64053;BME280;50299;49.524;8.536;2023-04-16T02:52:46;100615.25;;;4.40;92.55
64053;BME280;50299;49.524;8.536;2023-04-16T02:55:13;100623.19;;;4.76;89.27
64053;BME280;50299;49.524;8.536;2023-04-16T02:57:40;100622.00;;;4.53;85.90
64053;BME280;50299;49.524;8.536;2023-04-16T03:00:10;100622.34;;;4.41;88.37
64053;BME280;50299;49.524;8.536;2023-04-16T03:02:37;100613.34;;;3.86;90.66
64053;BME280;50299;49.524;8.536;2023-04-16T03:05:03;100623.28;;;4.22;90.47
64053;BME280;50299;49.524;8.536;2023-04-16T03:07:36;100621.97;;;4.09;91.32
64053;BME280;50299;49.524;8.536;2023-04-16T03:10:05;100624.13;;;4.17;90.57
64053;BME280;50299;49.524;8.536;2023-04-16T03:12:32;100621.78;;;4.39;87.67
64053;BME280;50299;49.524;8.536;2023-04-16T03:14:58;100622.34;;;4.41;84.43
64053;BME280;50299;49.524;8.536;2023-04-16T03:17:27;100619.97;;;4.64;87.73
64053;BME280;50299;49.524;8.536;2023-04-16T03:19:53;100626.03;;;5.00;85.27
64053;BME280;50299;49.524;8.536;2023-04-16T03:22:20;100628.59;;;4.52;83.36
64053;BME280;50299;49.524;8.536;2023-04-16T03:24:46;100625.66;;;5.12;88.71
64053;BME280;50299;49.524;8.536;2023-04-16T03:27:12;100627.75;;;4.91;82.42
64053;BME280;50299;49.524;8.536;2023-04-16T03:29:39;100635.56;;;5.08;83.97
64053;BME280;50299;49.524;8.536;2023-04-16T03:32:05;100639.88;;;4.80;81.93
64053;BME280;50299;49.524;8.536;2023-04-16T03:34:32;100639.09;;;4.74;81.46
64053;BME280;50299;49.524;8.536;2023-04-16T03:36:58;100644.88;;;4.73;83.22
64053;BME280;50299;49.524;8.536;2023-04-16T03:39:25;100647.84;;;4.76;88.08
64053;BME280;50299;49.524;8.536;2023-04-16T03:41:51;100649.19;;;4.34;83.25
64053;BME280;50299;49.524;8.536;2023-04-16T03:44:18;100644.63;;;4.69;83.37
64053;BME280;50299;49.524;8.536;2023-04-16T03:46:44;100644.00;;;4.77;83.85
64053;BME280;50299;49.524;8.536;2023-04-16T03:49:11;100641.16;;;4.53;82.92
64053;BME280;50299;49.524;8.536;2023-04-16T03:51:37;100647.09;;;4.65;83.86
64053;BME280;50299;49.524;8.536;2023-04-16T03:54:06;100645.59;;;4.44;84.21
64053;BME280;50299;49.524;8.536;2023-04-16T03:56:32;100644.88;;;4.28;84.26
64053;BME280;50299;49.524;8.536;2023-04-16T03:58:59;100651.38;;;4.77;84.18
64053;BME280;50299;49.524;8.536;2023-04-16T04:01:25;100652.03;;;4.63;84.09
64053;BME280;50299;49.524;8.536;2023-04-16T04:03:52;100645.34;;;4.80;82.57
64053;BME280;50299;49.524;8.536;2023-04-16T04:06:18;100658.91;;;5.00;80.91
64053;BME280;50299;49.524;8.536;2023-04-16T04:08:44;100653.84;;;4.78;81.68
64053;BME280;50299;49.524;8.536;2023-04-16T04:11:11;100650.44;;;5.31;89.83
64053;BME280;50299;49.524;8.536;2023-04-16T04:13:37;100638.78;;;5.44;89.24
64053;BME280;50299;49.524;8.536;2023-04-16T04:16:06;100656.50;;;5.81;83.88
64053;BME280;50299;49.524;8.536;2023-04-16T04:18:33;100653.25;;;5.21;78.75
64053;BME280;50299;49.524;8.536;2023-04-16T04:21:04;100660.38;;;5.51;79.60
64053;BME280;50299;49.524;8.536;2023-04-16T04:23:30;100661.38;;;5.02;79.18
64053;BME280;50299;49.524;8.536;2023-04-16T04:25:56;100654.63;;;5.23;82.29
64053;BME280;50299;49.524;8.536;2023-04-16T04:28:25;100662.31;;;4.87;79.30
64053;BME280;50299;49.524;8.536;2023-04-16T04:30:52;100653.63;;;5.38;82.61
64053;BME280;50299;49.524;8.536;2023-04-16T04:33:18;100654.09;;;5.74;83.12
64053;BME280;50299;49.524;8.536;2023-04-16T04:35:46;100666.91;;;6.03;79.36
64053;BME280;50299;49.524;8.536;2023-04-16T04:38:16;100673.38;;;5.93;74.47
64053;BME280;50299;49.524;8.536;2023-04-16T04:40:47;100671.97;;;5.72;78.94
64053;BME280;50299;49.524;8.536;2023-04-16T04:43:14;100675.69;;;6.05;77.54
64053;BME280;50299;49.524;8.536;2023-04-16T04:45:42;100681.53;;;5.98;74.01
64053;BME280;50299;49.524;8.536;2023-04-16T04:48:12;100688.53;;;6.09;76.94
64053;BME280;50299;49.524;8.536;2023-04-16T04:50:39;100684.31;;;6.17;76.13
64053;BME280;50299;49.524;8.536;2023-04-16T04:53:09;100690.31;;;6.19;73.42
64053;BME280;50299;49.524;8.536;2023-04-16T04:55:38;100686.09;;;5.84;74.04
64053;BME280;50299;49.524;8.536;2023-04-16T04:58:07;100690.41;;;6.14;78.53
64053;BME280;50299;49.524;8.536;2023-04-16T05:00:36;100703.44;;;6.27;74.69
64053;BME280;50299;49.524;8.536;2023-04-16T05:03:08;100695.28;;;6.41;77.10
64053;BME280;50299;49.524;8.536;2023-04-16T05:05:35;100710.66;;;6.61;73.69
64053;BME280;50299;49.524;8.536;2023-04-16T05:08:04;100710.00;;;6.69;74.03
64053;BME280;50299;49.524;8.536;2023-04-16T05:10:33;100715.13;;;6.95;77.82
64053;BME280;50299;49.524;8.536;2023-04-16T05:13:10;100711.59;;;6.75;73.16
64053;BME280;50299;49.524;8.536;2023-04-16T05:15:38;100711.34;;;6.53;74.56
64053;BME280;50299;49.524;8.536;2023-04-16T05:18:05;100713.00;;;6.54;72.64
64053;BME280;50299;49.524;8.536;2023-04-16T05:20:31;100710.53;;;6.52;74.65
64053;BME280;50299;49.524;8.536;2023-04-16T05:22:58;100718.03;;;6.23;72.83
64053;BME280;50299;49.524;8.536;2023-04-16T05:25:24;100714.81;;;6.15;71.36
64053;BME280;50299;49.524;8.536;2023-04-16T05:27:55;100722.31;;;6.34;76.17
64053;BME280;50299;49.524;8.536;2023-04-16T05:30:24;100726.75;;;6.49;72.67
64053;BME280;50299;49.524;8.536;2023-04-16T05:32:52;100721.34;;;6.20;73.78
64053;BME280;50299;49.524;8.536;2023-04-16T05:35:18;100718.78;;;6.28;76.43
64053;BME280;50299;49.524;8.536;2023-04-16T05:37:45;100721.06;;;6.21;73.85
64053;BME280;50299;49.524;8.536;2023-04-16T05:40:14;100729.69;;;5.85;71.17
64053;BME280;50299;49.524;8.536;2023-04-16T05:42:40;100728.25;;;5.93;72.07
64053;BME280;50299;49.524;8.536;2023-04-16T05:45:10;100730.16;;;5.93;73.91
64053;BME280;50299;49.524;8.536;2023-04-16T05:47:36;100734.38;;;5.85;71.21
64053;BME280;50299;49.524;8.536;2023-04-16T05:50:03;100737.97;;;5.17;73.17
64053;BME280;50299;49.524;8.536;2023-04-16T05:52:32;100735.88;;;5.38;75.15
64053;BME280;50299;49.524;8.536;2023-04-16T05:55:01;100740.97;;;5.84;76.85
64053;BME280;50299;49.524;8.536;2023-04-16T05:57:28;100738.06;;;6.23;75.20
64053;BME280;50299;49.524;8.536;2023-04-16T05:59:55;100744.78;;;6.36;72.94
64053;BME280;50299;49.524;8.536;2023-04-16T06:02:26;100744.81;;;6.07;69.27
64053;BME280;50299;49.524;8.536;2023-04-16T06:04:58;100751.53;;;5.96;70.91
64053;BME280;50299;49.524;8.536;2023-04-16T06:07:26;100758.75;;;5.57;73.11
64053;BME280;50299;49.524;8.536;2023-04-16T06:09:53;100752.94;;;5.93;78.14
64053;BME280;50299;49.524;8.536;2023-04-16T06:12:19;100758.72;;;5.62;73.79
64053;BME280;50299;49.524;8.536;2023-04-16T06:14:46;100759.91;;;5.17;73.49
64053;BME280;50299;49.524;8.536;2023-04-16T06:17:19;100754.06;;;4.89;76.06
64053;BME280;50299;49.524;8.536;2023-04-16T06:19:49;100759.03;;;5.27;76.21
64053;BME280;50299;49.524;8.536;2023-04-16T06:22:16;100757.44;;;5.84;76.85
64053;BME280;50299;49.524;8.536;2023-04-16T06:24:43;100772.84;;;5.75;74.18
64053;BME280;50299;49.524;8.536;2023-04-16T06:27:17;100770.31;;;5.83;71.61
64053;BME280;50299;49.524;8.536;2023-04-16T06:29:43;100764.59;;;5.80;75.80
64053;BME280;50299;49.524;8.536;2023-04-16T06:32:17;100772.19;;;5.88;71.77
64053;BME280;50299;49.524;8.536;2023-04-16T06:34:45;100783.88;;;5.70;72.98
64053;BME280;50299;49.524;8.536;2023-04-16T06:37:13;100773.59;;;5.22;73.94
64053;BME280;50299;49.524;8.536;2023-04-16T06:39:42;100773.47;;;4.98;74.58
64053;BME280;50299;49.524;8.536;2023-04-16T06:42:10;100776.22;;;4.93;76.02
64053;BME280;50299;49.524;8.536;2023-04-16T06:44:45;100774.81;;;5.01;76.44
64053;BME280;50299;49.524;8.536;2023-04-16T06:47:14;100772.16;;;4.80;76.06
64053;BME280;50299;49.524;8.536;2023-04-16T06:49:45;100776.56;;;4.81;76.86
64053;BME280;50299;49.524;8.536;2023-04-16T06:52:16;100771.03;;;4.91;76.77
64053;BME280;50299;49.524;8.536;2023-04-16T06:54:43;100777.06;;;4.88;76.67
64053;BME280;50299;49.524;8.536;2023-04-16T06:57:15;100766.91;;;5.33;80.49
64053;BME280;50299;49.524;8.536;2023-04-16T06:59:46;100781.31;;;5.15;75.70
64053;BME280;50299;49.524;8.536;2023-04-16T07:02:15;100785.81;;;4.96;75.64
64053;BME280;50299;49.524;8.536;2023-04-16T07:04:44;100786.25;;;4.58;77.56
64053;BME280;50299;49.524;8.536;2023-04-16T07:07:12;100786.19;;;4.74;77.86
64053;BME280;50299;49.524;8.536;2023-04-16T07:09:41;100781.31;;;4.55;77.80
64053;BME280;50299;49.524;8.536;2023-04-16T07:12:08;100780.84;;;4.38;79.58
64053;BME280;50299;49.524;8.536;2023-04-16T07:14:35;100774.94;;;4.75;78.97
64053;BME280;50299;49.524;8.536;2023-04-16T07:17:01;100778.56;;;5.15;79.80
64053;BME280;50299;49.524;8.536;2023-04-16T07:19:34;100785.00;;;5.34;75.79
64053;BME280;50299;49.524;8.536;2023-04-16T07:22:01;100782.28;;;4.80;77.73
64053;BME280;50299;49.524;8.536;2023-04-16T07:24:30;100787.00;;;5.24;77.45
64053;BME280;50299;49.524;8.536;2023-04-16T07:26:57;100788.81;;;5.38;76.77
64053;BME280;50299;49.524;8.536;2023-04-16T07:29:24;100786.94;;;5.68;77.18
64053;BME280;50299;49.524;8.536;2023-04-16T07:31:50;100790.25;;;6.23;77.79
64053;BME280;50299;49.524;8.536;2023-04-16T07:34:20;100787.44;;;6.28;71.69
64053;BME280;50299;49.524;8.536;2023-04-16T07:36:46;100789.34;;;6.28;77.15
64053;BME280;50299;49.524;8.536;2023-04-16T07:39:13;100802.56;;;5.97;72.36
64053;BME280;50299;49.524;8.536;2023-04-16T07:41:42;100803.97;;;6.47;73.55
64053;BME280;50299;49.524;8.536;2023-04-16T07:44:08;100804.69;;;5.76;72.44
64053;BME280;50299;49.524;8.536;2023-04-16T07:46:35;100800.75;;;5.53;73.51
64053;BME280;50299;49.524;8.536;2023-04-16T07:49:17;100803.03;;;5.40;75.43
64053;BME280;50299;49.524;8.536;2023-04-16T07:51:45;100802.34;;;5.25;76.39
64053;BME280;50299;49.524;8.536;2023-04-16T07:54:12;100801.41;;;5.39;78.04
64053;BME280;50299;49.524;8.536;2023-04-16T07:56:42;100803.78;;;5.85;75.88
64053;BME280;50299;49.524;8.536;2023-04-16T07:59:08;100813.81;;;5.95;72.59
64053;BME280;50299;49.524;8.536;2023-04-16T08:01:56;100816.25;;;5.38;74.00
64053;BME280;50299;49.524;8.536;2023-04-16T08:04:25;100818.56;;;5.16;75.77
64053;BME280;50299;49.524;8.536;2023-04-16T08:06:55;100813.72;;;5.03;77.70
64053;BME280;50299;49.524;8.536;2023-04-16T08:09:25;100818.59;;;5.50;76.65
64053;BME280;50299;49.524;8.536;2023-04-16T08:11:51;100822.44;;;5.83;74.96
64053;BME280;50299;49.524;8.536;2023-04-16T08:14:24;100822.72;;;6.11;74.78
64053;BME280;50299;49.524;8.536;2023-04-16T08:16:51;100823.72;;;6.25;73.65
64053;BME280;50299;49.524;8.536;2023-04-16T08:19:20;100825.59;;;6.30;72.71
64053;BME280;50299;49.524;8.536;2023-04-16T08:21:50;100838.06;;;6.12;76.18
64053;BME280;50299;49.524;8.536;2023-04-16T08:24:19;100829.22;;;6.25;72.11
64053;BME280;50299;49.524;8.536;2023-04-16T08:26:48;100842.09;;;6.54;71.96
64053;BME280;50299;49.524;8.536;2023-04-16T08:29:14;100838.50;;;6.00;72.19
64053;BME280;50299;49.524;8.536;2023-04-16T08:31:56;100845.41;;;5.93;75.09
64053;BME280;50299;49.524;8.536;2023-04-16T08:34:24;100842.56;;;6.03;77.24
64053;BME280;50299;49.524;8.536;2023-04-16T08:36:58;100841.25;;;6.29;78.42
64053;BME280;50299;49.524;8.536;2023-04-16T08:39:27;100839.28;;;6.59;80.57
64053;BME280;50299;49.524;8.536;2023-04-16T08:41:57;100847.38;;;6.16;75.87
64053;BME280;50299;49.524;8.536;2023-04-16T08:44:30;100846.00;;;5.50;78.55
64053;BME280;50299;49.524;8.536;2023-04-16T08:46:59;100857.00;;;5.06;81.79
64053;BME280;50299;49.524;8.536;2023-04-16T08:49:28;100856.03;;;5.31;83.25
64053;BME280;50299;49.524;8.536;2023-04-16T08:52:04;100859.38;;;5.62;82.70
64053;BME280;50299;49.524;8.536;2023-04-16T08:54:38;100861.44;;;5.80;81.69
64053;BME280;50299;49.524;8.536;2023-04-16T08:57:09;100863.22;;;5.61;80.04
64053;BME280;50299;49.524;8.536;2023-04-16T08:59:45;100858.81;;;5.65;81.10
64053;BME280;50299;49.524;8.536;2023-04-16T09:02:12;100863.75;;;5.63;81.52
64053;BME280;50299;49.524;8.536;2023-04-16T09:04:40;100862.00;;;5.77;81.01
64053;BME280;50299;49.524;8.536;2023-04-16T09:07:08;100866.19;;;5.70;81.92
64053;BME280;50299;49.524;8.536;2023-04-16T09:09:36;100868.00;;;6.13;88.17
64053;BME280;50299;49.524;8.536;2023-04-16T09:12:04;100867.56;;;6.01;84.42
64053;BME280;50299;49.524;8.536;2023-04-16T09:14:33;100865.50;;;5.49;89.69
64053;BME280;50299;49.524;8.536;2023-04-16T09:16:59;100873.34;;;5.26;90.45
64053;BME280;50299;49.524;8.536;2023-04-16T09:19:27;100864.44;;;5.45;90.14
64053;BME280;50299;49.524;8.536;2023-04-16T09:21:54;100878.41;;;5.82;86.69
64053;BME280;50299;49.524;8.536;2023-04-16T09:24:24;100875.16;;;4.86;88.76
64053;BME280;50299;49.524;8.536;2023-04-16T09:26:54;100868.56;;;4.82;92.75
64053;BME280;50299;49.524;8.536;2023-04-16T09:29:33;100882.41;;;5.16;89.12
64053;BME280;50299;49.524;8.536;2023-04-16T09:32:04;100881.75;;;4.85;95.76
64053;BME280;50299;49.524;8.536;2023-04-16T09:34:32;100880.84;;;5.50;97.15
64053;BME280;50299;49.524;8.536;2023-04-16T09:37:16;100882.69;;;4.40;91.76
64053;BME280;50299;49.524;8.536;2023-04-16T09:39:52;100881.81;;;4.55;93.21
64053;BME280;50299;49.524;8.536;2023-04-16T09:42:24;100884.91;;;4.12;96.04
64053;BME280;50299;49.524;8.536;2023-04-16T09:44:55;100885.72;;;4.13;96.92
64053;BME280;50299;49.524;8.536;2023-04-16T09:47:38;100886.25;;;3.59;97.80
64053;BME280;50299;49.524;8.536;2023-04-16T09:50:08;100884.59;;;4.34;100.00
64053;BME280;50299;49.524;8.536;2023-04-16T09:52:38;100888.69;;;4.42;95.25
64053;BME280;50299;49.524;8.536;2023-04-16T09:55:05;100885.47;;;3.99;96.42
64053;BME280;50299;49.524;8.536;2023-04-16T09:57:36;100890.66;;;3.96;97.77
64053;BME280;50299;49.524;8.536;2023-04-16T10:00:10;100892.00;;;3.98;96.97
64053;BME280;50299;49.524;8.536;2023-04-16T10:02:40;100891.16;;;4.49;100.00
64053;BME280;50299;49.524;8.536;2023-04-16T10:05:08;100894.66;;;4.64;95.46
64053;BME280;50299;49.524;8.536;2023-04-16T10:07:38;100892.81;;;4.19;96.05
64053;BME280;50299;49.524;8.536;2023-04-16T10:10:05;100893.13;;;3.92;96.58
64053;BME280;50299;49.524;8.536;2023-04-16T10:12:32;100892.53;;;4.26;97.49
64053;BME280;50299;49.524;8.536;2023-04-16T10:15:01;100903.47;;;4.41;96.75
64053;BME280;50299;49.524;8.536;2023-04-16T10:17:27;100898.56;;;4.33;97.67
64053;BME280;50299;49.524;8.536;2023-04-16T10:19:57;100893.66;;;4.25;96.55
64053;BME280;50299;49.524;8.536;2023-04-16T10:22:24;100900.19;;;4.44;96.58
64053;BME280;50299;49.524;8.536;2023-04-16T10:24:53;100905.38;;;4.35;96.27
64053;BME280;50299;49.524;8.536;2023-04-16T10:27:20;100903.69;;;4.60;96.64
64053;BME280;50299;49.524;8.536;2023-04-16T10:29:48;100898.97;;;4.91;95.53
64053;BME280;50299;49.524;8.536;2023-04-16T10:32:24;100902.56;;;4.86;95.37
64053;BME280;50299;49.524;8.536;2023-04-16T10:34:54;100905.13;;;5.27;94.84
64053;BME280;50299;49.524;8.536;2023-04-16T10:37:30;100907.94;;;5.12;92.90
64053;BME280;50299;49.524;8.536;2023-04-16T10:39:57;100907.31;;;5.25;90.92
64053;BME280;50299;49.524;8.536;2023-04-16T10:42:25;100909.06;;;5.95;94.63
64053;BME280;50299;49.524;8.536;2023-04-16T10:44:53;100917.00;;;6.30;92.71
64053;BME280;50299;49.524;8.536;2023-04-16T10:47:23;100916.16;;;5.61;85.15
64053;BME280;50299;49.524;8.536;2023-04-16T10:49:49;100907.31;;;5.30;86.78
64053;BME280;50299;49.524;8.536;2023-04-16T10:52:17;100910.50;;;5.48;89.32
64053;BME280;50299;49.524;8.536;2023-04-16T10:54:45;100912.44;;;5.81;88.94
64053;BME280;50299;49.524;8.536;2023-04-16T10:57:18;100911.78;;;6.29;88.79
64053;BME280;50299;49.524;8.536;2023-04-16T10:59:45;100913.44;;;6.59;89.50
64053;BME280;50299;49.524;8.536;2023-04-16T11:02:15;100910.16;;;6.81;83.88
64053;BME280;50299;49.524;8.536;2023-04-16T11:04:47;100912.84;;;6.38;79.97
64053;BME280;50299;49.524;8.536;2023-04-16T11:07:20;100913.84;;;6.13;81.79
64053;BME280;50299;49.524;8.536;2023-04-16T11:12:23;100911.75;;;6.00;81.71
64053;BME280;50299;49.524;8.536;2023-04-16T11:15:03;100919.53;;;6.27;86.03
64053;BME280;50299;49.524;8.536;2023-04-16T11:17:35;100919.22;;;5.94;83.97
64053;BME280;50299;49.524;8.536;2023-04-16T11:20:29;100913.56;;;6.14;83.31
64053;BME280;50299;49.524;8.536;2023-04-16T11:22:56;100916.03;;;6.45;85.89
64053;BME280;50299;49.524;8.536;2023-04-16T11:25:23;100915.97;;;6.79;80.91
64053;BME280;50299;49.524;8.536;2023-04-16T11:27:51;100921.69;;;6.59;79.74
64053;BME280;50299;49.524;8.536;2023-04-16T11:30:29;100909.72;;;6.45;84.73
64053;BME280;50299;49.524;8.536;2023-04-16T11:32:56;100919.91;;;6.44;79.81
64053;BME280;50299;49.524;8.536;2023-04-16T11:35:23;100910.22;;;6.76;81.71
64053;BME280;50299;49.524;8.536;2023-04-16T11:37:54;100915.75;;;6.95;84.61
64053;BME280;50299;49.524;8.536;2023-04-16T11:40:28;100917.84;;;7.27;80.60
64053;BME280;50299;49.524;8.536;2023-04-16T11:43:01;100917.81;;;7.51;77.91
64053;BME280;50299;49.524;8.536;2023-04-16T11:45:29;100922.09;;;6.71;77.65
64053;BME280;50299;49.524;8.536;2023-04-16T11:47:59;100928.03;;;6.78;77.66
64053;BME280;50299;49.524;8.536;2023-04-16T11:50:28;100912.44;;;6.98;84.09
64053;BME280;50299;49.524;8.536;2023-04-16T11:52:57;100917.47;;;6.90;78.79
64053;BME280;50299;49.524;8.536;2023-04-16T11:55:31;100911.94;;;7.14;83.34
64053;BME280;50299;49.524;8.536;2023-04-16T11:58:18;100910.16;;;7.67;79.07
64053;BME280;50299;49.524;8.536;2023-04-16T12:00:48;100909.41;;;7.80;78.70
64053;BME280;50299;49.524;8.536;2023-04-16T12:03:36;100908.72;;;7.88;76.10
64053;BME280;50299;49.524;8.536;2023-04-16T12:06:07;100918.63;;;7.70;76.75
64053;BME280;50299;49.524;8.536;2023-04-16T12:08:36;100915.94;;;7.84;75.86
64053;BME280;50299;49.524;8.536;2023-04-16T12:11:07;100918.38;;;8.04;74.79
64053;BME280;50299;49.524;8.536;2023-04-16T12:13:34;100928.22;;;8.24;74.52
64053;BME280;50299;49.524;8.536;2023-04-16T12:16:17;100920.81;;;8.06;73.48
64053;BME280;50299;49.524;8.536;2023-04-16T12:21:46;100925.38;;;8.29;71.40
64053;BME280;50299;49.524;8.536;2023-04-16T12:24:17;100920.31;;;8.36;74.37
64053;BME280;50299;49.524;8.536;2023-04-16T12:26:53;100926.75;;;8.46;70.50
64053;BME280;50299;49.524;8.536;2023-04-16T12:29:24;100924.72;;;8.51;74.94
64053;BME280;50299;49.524;8.536;2023-04-16T12:31:51;100934.75;;;8.61;72.06
64053;BME280;50299;49.524;8.536;2023-04-16T12:34:20;100922.66;;;7.78;70.03
64053;BME280;50299;49.524;8.536;2023-04-16T12:37:09;100921.91;;;7.91;75.43
64053;BME280;50299;49.524;8.536;2023-04-16T12:39:35;100921.59;;;8.25;73.86
64053;BME280;50299;49.524;8.536;2023-04-16T12:42:02;100927.84;;;7.98;70.60
64053;BME280;50299;49.524;8.536;2023-04-16T12:44:34;100921.97;;;7.86;72.24
64053;BME280;50299;49.524;8.536;2023-04-16T12:47:01;100928.34;;;8.00;73.70
64053;BME280;50299;49.524;8.536;2023-04-16T12:49:27;100925.56;;;8.19;73.83
64053;BME280;50299;49.524;8.536;2023-04-16T12:51:56;100928.38;;;7.62;71.91
64053;BME280;50299;49.524;8.536;2023-04-16T12:54:23;100922.41;;;7.36;75.49
64053;BME280;50299;49.524;8.536;2023-04-16T12:56:54;100936.88;;;7.66;75.39
64053;BME280;50299;49.524;8.536;2023-04-16T12:59:20;100933.88;;;7.62;74.93
64053;BME280;50299;49.524;8.536;2023-04-16T13:01:46;100934.16;;;7.80;71.11
64053;BME280;50299;49.524;8.536;2023-04-16T13:04:13;100928.94;;;7.97;73.80
64053;BME280;50299;49.524;8.536;2023-04-16T13:06:40;100936.31;;;7.64;73.04
64053;BME280;50299;49.524;8.536;2023-04-16T13:09:07;100931.25;;;7.52;73.09
64053;BME280;50299;49.524;8.536;2023-04-16T13:11:33;100929.44;;;7.43;74.25
64053;BME280;50299;49.524;8.536;2023-04-16T13:14:00;100933.16;;;7.33;75.16